sensor_id;sensor_type;location;lat;lon;timestamp;temperature;humidity
26186;DHT22;20067;48.764;9.176;2023-08-30T00:00:20;14.90;91.30
26186;DHT22;20067;48.764;9.176;2023-08-30T00:02:48;14.80;91.30
26186;DHT22;20067;48.764;9.176;2023-08-30T00:05:14;14.80;91.30
26186;DHT22;20067;48.764;9.176;2023-08-30T00:07:40;15.10;91.30
26186;DHT22;20067;48.764;9.176;2023-08-30T00:10:08;15.30;91.30
26186;DHT22;20067;48.764;9.176;2023-08-30T00:12:35;15.30;91.30
26186;DHT22;20067;48.764;9.176;2023-08-30T00:15:01;15.30;91.30
26186;DHT22;20067;48.764;9.176;2023-08-30T00:17:27;15.30;91.30
26186;DHT22;20067;48.764;9.176;2023-08-30T00:19:52;15.30;91.30
26186;DHT22;20067;48.764;9.176;2023-08-30T00:22:21;15.10;91.30
26186;DHT22;20067;48.764;9.176;2023-08-30T00:24:47;15.20;91.30
26186;DHT22;20067;48.764;9.176;2023-08-30T00:27:13;15.10;91.30
26186;DHT22;20067;48.764;9.176;2023-08-30T00:29:38;15.10;91.30
26186;DHT22;20067;48.764;9.176;2023-08-30T00:32:04;15.20;91.30
26186;DHT22;20067;48.764;9.176;2023-08-30T00:34:30;15.30;91.30
26186;DHT22;20067;48.764;9.176;2023-08-30T00:36:55;15.30;91.30
26186;DHT22;20067;48.764;9.176;2023-08-30T00:39:21;15.20;91.30
26186;DHT22;20067;48.764;9.176;2023-08-30T00:41:48;15.40;91.30
26186;DHT22;20067;48.764;9.176;2023-08-30T00:44:14;15.50;91.30
26186;DHT22;20067;48.764;9.176;2023-08-30T00:46:40;15.40;91.30
26186;DHT22;20067;48.764;9.176;2023-08-30T00:49:06;15.40;91.30
26186;DHT22;20067;48.764;9.176;2023-08-30T00:51:32;15.20;91.30
26186;DHT22;20067;48.764;9.176;2023-08-30T00:53:59;15.30;91.30
26186;DHT22;20067;48.764;9.176;2023-08-30T00:56:27;15.20;91.30
26186;DHT22;20067;48.764;9.176;2023-08-30T00:58:53;15.00;91.30
26186;DHT22;20067;48.764;9.176;2023-08-30T01:01:20;15.00;91.30
26186;DHT22;20067;48.764;9.176;2023-08-30T01:03:45;15.00;91.30
26186;DHT22;20067;48.764;9.176;2023-08-30T01:06:11;15.10;91.30
26186;DHT22;20067;48.764;9.176;2023-08-30T01:08:39;15.00;91.30
26186;DHT22;20067;48.764;9.176;2023-08-30T01:14:00;14.90;91.30
26186;DHT22;20067;48.764;9.176;2023-08-30T01:16:29;15.20;91.30
26186;DHT22;20067;48.764;9.176;2023-08-30T01:18:56;15.30;91.30
26186;DHT22;20067;48.764;9.176;2023-08-30T01:21:56;15.00;91.30
26186;DHT22;20067;48.764;9.176;2023-08-30T01:24:32;15.00;91.30
26186;DHT22;20067;48.764;9.176;2023-08-30T01:27:11;14.60;91.30
26186;DHT22;20067;48.764;9.176;2023-08-30T01:29:43;14.90;91.30
26186;DHT22;20067;48.764;9.176;2023-08-30T01:32:10;15.00;91.30
26186;DHT22;20067;48.764;9.176;2023-08-30T01:34:38;15.00;91.30
26186;DHT22;20067;48.764;9.176;2023-08-30T01:37:06;14.90;91.30
26186;DHT22;20067;48.764;9.176;2023-08-30T01:39:36;15.00;91.30
26186;DHT22;20067;48.764;9.176;2023-08-30T01:42:04;15.00;91.30
26186;DHT22;20067;48.764;9.176;2023-08-30T01:44:30;15.10;91.30
26186;DHT22;20067;48.764;9.176;2023-08-30T01:46:57;15.10;91.30
26186;DHT22;20067;48.764;9.176;2023-08-30T01:49:25;15.30;91.30
26186;DHT22;20067;48.764;9.176;2023-08-30T01:51:51;15.30;91.30
26186;DHT22;20067;48.764;9.176;2023-08-30T01:54:18;15.50;91.30
26186;DHT22;20067;48.764;9.176;2023-08-30T01:56:46;15.50;91.30
26186;DHT22;20067;48.764;9.176;2023-08-30T01:59:12;15.30;91.30
26186;DHT22;20067;48.764;9.176;2023-08-30T02:01:37;15.20;91.30
26186;DHT22;20067;48.764;9.176;2023-08-30T02:04:03;15.20;91.30
26186;DHT22;20067;48.764;9.176;2023-08-30T02:09:17;15.40;91.30
26186;DHT22;20067;48.764;9.176;2023-08-30T02:11:44;15.20;91.30
26186;DHT22;20067;48.764;9.176;2023-08-30T02:14:13;15.30;91.30
26186;DHT22;20067;48.764;9.176;2023-08-30T02:16:43;15.50;91.30
26186;DHT22;20067;48.764;9.176;2023-08-30T02:19:11;15.30;91.30
26186;DHT22;20067;48.764;9.176;2023-08-30T02:21:39;15.00;91.30
26186;DHT22;20067;48.764;9.176;2023-08-30T02:24:05;15.00;91.30
26186;DHT22;20067;48.764;9.176;2023-08-30T02:26:30;15.10;91.30
26186;DHT22;20067;48.764;9.176;2023-08-30T02:28:56;15.30;91.30
26186;DHT22;20067;48.764;9.176;2023-08-30T02:31:22;15.50;91.30
26186;DHT22;20067;48.764;9.176;2023-08-30T02:33:47;15.30;91.30
26186;DHT22;20067;48.764;9.176;2023-08-30T02:36:13;15.20;91.30
26186;DHT22;20067;48.764;9.176;2023-08-30T02:38:39;15.10;91.30
26186;DHT22;20067;48.764;9.176;2023-08-30T02:41:04;15.00;91.30
26186;DHT22;20067;48.764;9.176;2023-08-30T02:43:30;14.70;91.30
26186;DHT22;20067;48.764;9.176;2023-08-30T02:45:55;14.60;91.30
26186;DHT22;20067;48.764;9.176;2023-08-30T02:48:21;14.60;91.30
26186;DHT22;20067;48.764;9.176;2023-08-30T02:50:47;14.70;91.30
26186;DHT22;20067;48.764;9.176;2023-08-30T02:53:13;14.90;91.30
26186;DHT22;20067;48.764;9.176;2023-08-30T02:55:38;14.50;91.30
26186;DHT22;20067;48.764;9.176;2023-08-30T02:58:04;14.40;91.30
26186;DHT22;20067;48.764;9.176;2023-08-30T03:00:29;14.40;91.30
26186;DHT22;20067;48.764;9.176;2023-08-30T03:02:55;14.60;91.30
26186;DHT22;20067;48.764;9.176;2023-08-30T03:05:21;14.60;91.30
26186;DHT22;20067;48.764;9.176;2023-08-30T03:07:46;14.50;91.30
26186;DHT22;20067;48.764;9.176;2023-08-30T03:10:12;14.70;91.30
26186;DHT22;20067;48.764;9.176;2023-08-30T03:12:38;15.00;91.30
26186;DHT22;20067;48.764;9.176;2023-08-30T03:15:04;15.00;91.30
26186;DHT22;20067;48.764;9.176;2023-08-30T03:17:30;15.10;91.30
26186;DHT22;20067;48.764;9.176;2023-08-30T03:19:56;15.10;91.30
26186;DHT22;20067;48.764;9.176;2023-08-30T03:22:22;14.90;91.30
26186;DHT22;20067;48.764;9.176;2023-08-30T03:24:47;15.00;91.30
26186;DHT22;20067;48.764;9.176;2023-08-30T03:27:14;15.00;91.30
26186;DHT22;20067;48.764;9.176;2023-08-30T03:29:40;15.10;91.30
26186;DHT22;20067;48.764;9.176;2023-08-30T03:32:06;14.90;91.30
26186;DHT22;20067;48.764;9.176;2023-08-30T03:34:31;14.80;91.30
26186;DHT22;20067;48.764;9.176;2023-08-30T03:36:57;14.80;91.30
26186;DHT22;20067;48.764;9.176;2023-08-30T03:39:23;14.80;91.30
26186;DHT22;20067;48.764;9.176;2023-08-30T03:41:50;15.00;91.30
26186;DHT22;20067;48.764;9.176;2023-08-30T03:44:15;14.90;91.30
26186;DHT22;20067;48.764;9.176;2023-08-30T03:46:41;14.90;91.30
26186;DHT22;20067;48.764;9.176;2023-08-30T03:49:06;14.80;91.30
26186;DHT22;20067;48.764;9.176;2023-08-30T03:51:32;14.90;91.30
26186;DHT22;20067;48.764;9.176;2023-08-30T03:53:58;14.60;91.30
26186;DHT22;20067;48.764;9.176;2023-08-30T03:56:23;14.80;91.30
26186;DHT22;20067;48.764;9.176;2023-08-30T03:58:49;15.00;91.30
26186;DHT22;20067;48.764;9.176;2023-08-30T04:01:15;14.80;91.30
26186;DHT22;20067;48.764;9.176;2023-08-30T04:03:40;14.90;91.30
26186;DHT22;20067;48.764;9.176;2023-08-30T04:06:06;15.00;91.30
26186;DHT22;20067;48.764;9.176;2023-08-30T04:08:32;15.00;91.30
26186;DHT22;20067;48.764;9.176;2023-08-30T04:10:57;15.20;91.30
26186;DHT22;20067;48.764;9.176;2023-08-30T04:13:23;15.20;91.30
26186;DHT22;20067;48.764;9.176;2023-08-30T04:15:49;15.20;91.30
26186;DHT22;20067;48.764;9.176;2023-08-30T04:18:16;15.00;91.30
26186;DHT22;20067;48.764;9.176;2023-08-30T04:20:46;14.90;91.30
26186;DHT22;20067;48.764;9.176;2023-08-30T04:23:12;15.10;91.30
26186;DHT22;20067;48.764;9.176;2023-08-30T04:25:38;15.10;91.30
26186;DHT22;20067;48.764;9.176;2023-08-30T04:28:04;14.80;91.30
26186;DHT22;20067;48.764;9.176;2023-08-30T04:30:30;14.80;91.30
26186;DHT22;20067;48.764;9.176;2023-08-30T04:32:56;14.90;91.30
26186;DHT22;20067;48.764;9.176;2023-08-30T04:35:22;14.80;91.30
26186;DHT22;20067;48.764;9.176;2023-08-30T04:37:47;14.80;91.30
26186;DHT22;20067;48.764;9.176;2023-08-30T04:40:16;14.70;91.30
26186;DHT22;20067;48.764;9.176;2023-08-30T04:42:41;14.60;91.30
26186;DHT22;20067;48.764;9.176;2023-08-30T04:45:08;14.60;91.30
26186;DHT22;20067;48.764;9.176;2023-08-30T04:47:35;14.90;91.30
26186;DHT22;20067;48.764;9.176;2023-08-30T04:50:01;14.90;91.30
26186;DHT22;20067;48.764;9.176;2023-08-30T04:52:26;14.70;91.30
26186;DHT22;20067;48.764;9.176;2023-08-30T04:54:52;14.90;91.30
26186;DHT22;20067;48.764;9.176;2023-08-30T04:57:18;15.10;91.30
26186;DHT22;20067;48.764;9.176;2023-08-30T04:59:44;15.00;91.30
26186;DHT22;20067;48.764;9.176;2023-08-30T05:02:12;14.90;91.30
26186;DHT22;20067;48.764;9.176;2023-08-30T05:04:38;14.90;91.30
26186;DHT22;20067;48.764;9.176;2023-08-30T05:07:03;14.90;91.30
26186;DHT22;20067;48.764;9.176;2023-08-30T05:09:32;15.00;91.30
26186;DHT22;20067;48.764;9.176;2023-08-30T05:11:58;15.00;91.30
26186;DHT22;20067;48.764;9.176;2023-08-30T05:14:33;15.00;91.30
26186;DHT22;20067;48.764;9.176;2023-08-30T05:16:59;15.10;91.30
26186;DHT22;20067;48.764;9.176;2023-08-30T05:19:24;14.80;91.30
26186;DHT22;20067;48.764;9.176;2023-08-30T05:21:50;15.00;91.30
26186;DHT22;20067;48.764;9.176;2023-08-30T05:24:20;15.00;91.30
26186;DHT22;20067;48.764;9.176;2023-08-30T05:26:46;15.20;91.30
26186;DHT22;20067;48.764;9.176;2023-08-30T05:29:16;15.20;91.30
26186;DHT22;20067;48.764;9.176;2023-08-30T05:31:42;15.20;91.30
26186;DHT22;20067;48.764;9.176;2023-08-30T05:34:07;15.10;91.30
26186;DHT22;20067;48.764;9.176;2023-08-30T05:36:33;14.80;91.30
26186;DHT22;20067;48.764;9.176;2023-08-30T05:38:58;14.80;91.30
26186;DHT22;20067;48.764;9.176;2023-08-30T05:41:24;14.80;91.30
26186;DHT22;20067;48.764;9.176;2023-08-30T05:43:51;14.80;91.30
26186;DHT22;20067;48.764;9.176;2023-08-30T05:46:17;14.70;91.30
26186;DHT22;20067;48.764;9.176;2023-08-30T05:48:42;14.80;91.30
26186;DHT22;20067;48.764;9.176;2023-08-30T05:51:08;14.90;91.30
26186;DHT22;20067;48.764;9.176;2023-08-30T05:53:34;15.20;91.30
26186;DHT22;20067;48.764;9.176;2023-08-30T05:55:59;15.10;91.30
26186;DHT22;20067;48.764;9.176;2023-08-30T05:58:25;15.20;91.30
26186;DHT22;20067;48.764;9.176;2023-08-30T06:00:51;15.00;91.30
26186;DHT22;20067;48.764;9.176;2023-08-30T06:03:16;15.20;91.30
26186;DHT22;20067;48.764;9.176;2023-08-30T06:05:42;15.30;91.30
26186;DHT22;20067;48.764;9.176;2023-08-30T06:08:08;15.60;91.30
26186;DHT22;20067;48.764;9.176;2023-08-30T06:10:35;15.60;91.30
26186;DHT22;20067;48.764;9.176;2023-08-30T06:13:01;15.80;91.30
26186;DHT22;20067;48.764;9.176;2023-08-30T06:15:28;15.70;91.30
26186;DHT22;20067;48.764;9.176;2023-08-30T06:17:53;15.80;91.30
26186;DHT22;20067;48.764;9.176;2023-08-30T06:20:19;15.70;91.30
26186;DHT22;20067;48.764;9.176;2023-08-30T06:22:45;15.40;91.30
26186;DHT22;20067;48.764;9.176;2023-08-30T06:25:11;15.40;91.30
26186;DHT22;20067;48.764;9.176;2023-08-30T06:27:42;15.50;91.30
26186;DHT22;20067;48.764;9.176;2023-08-30T06:30:09;15.80;91.30
26186;DHT22;20067;48.764;9.176;2023-08-30T06:32:36;15.70;91.30
26186;DHT22;20067;48.764;9.176;2023-08-30T06:35:01;15.80;91.30
26186;DHT22;20067;48.764;9.176;2023-08-30T06:37:27;15.60;91.30
26186;DHT22;20067;48.764;9.176;2023-08-30T06:39:53;15.70;91.30
26186;DHT22;20067;48.764;9.176;2023-08-30T06:42:19;15.70;91.30
26186;DHT22;20067;48.764;9.176;2023-08-30T06:44:44;15.90;91.30
26186;DHT22;20067;48.764;9.176;2023-08-30T06:47:10;15.90;91.30
26186;DHT22;20067;48.764;9.176;2023-08-30T06:49:35;16.00;91.30
26186;DHT22;20067;48.764;9.176;2023-08-30T06:52:01;16.00;91.30
26186;DHT22;20067;48.764;9.176;2023-08-30T06:54:29;16.10;91.30
26186;DHT22;20067;48.764;9.176;2023-08-30T06:57:00;16.20;91.30
26186;DHT22;20067;48.764;9.176;2023-08-30T06:59:26;16.20;91.30
26186;DHT22;20067;48.764;9.176;2023-08-30T07:01:52;16.50;91.30
26186;DHT22;20067;48.764;9.176;2023-08-30T07:04:18;16.60;91.30
26186;DHT22;20067;48.764;9.176;2023-08-30T07:06:44;16.30;91.30
26186;DHT22;20067;48.764;9.176;2023-08-30T07:09:10;16.30;91.30
26186;DHT22;20067;48.764;9.176;2023-08-30T07:11:37;16.20;91.30
26186;DHT22;20067;48.764;9.176;2023-08-30T07:14:03;16.30;91.30
26186;DHT22;20067;48.764;9.176;2023-08-30T07:16:29;16.20;91.30
26186;DHT22;20067;48.764;9.176;2023-08-30T07:18:57;15.90;91.30
26186;DHT22;20067;48.764;9.176;2023-08-30T07:21:23;15.60;91.30
26186;DHT22;20067;48.764;9.176;2023-08-30T07:23:48;15.60;91.30
26186;DHT22;20067;48.764;9.176;2023-08-30T07:26:14;15.70;91.30
26186;DHT22;20067;48.764;9.176;2023-08-30T07:28:39;15.70;91.30
26186;DHT22;20067;48.764;9.176;2023-08-30T07:31:05;15.80;91.30
26186;DHT22;20067;48.764;9.176;2023-08-30T07:33:31;15.70;91.30
26186;DHT22;20067;48.764;9.176;2023-08-30T07:35:57;15.90;91.30
26186;DHT22;20067;48.764;9.176;2023-08-30T07:38:22;16.10;91.30
26186;DHT22;20067;48.764;9.176;2023-08-30T07:40:48;16.40;91.30
26186;DHT22;20067;48.764;9.176;2023-08-30T07:43:14;16.30;91.30
26186;DHT22;20067;48.764;9.176;2023-08-30T07:45:39;16.30;91.30
26186;DHT22;20067;48.764;9.176;2023-08-30T07:48:05;16.50;91.30
26186;DHT22;20067;48.764;9.176;2023-08-30T07:50:31;16.60;91.30
26186;DHT22;20067;48.764;9.176;2023-08-30T07:52:58;16.80;91.30
26186;DHT22;20067;48.764;9.176;2023-08-30T07:55:24;16.70;91.30
26186;DHT22;20067;48.764;9.176;2023-08-30T07:57:49;16.20;91.30
26186;DHT22;20067;48.764;9.176;2023-08-30T08:00:15;16.30;91.30
26186;DHT22;20067;48.764;9.176;2023-08-30T08:02:41;16.40;91.30
26186;DHT22;20067;48.764;9.176;2023-08-30T08:05:07;16.70;91.30
26186;DHT22;20067;48.764;9.176;2023-08-30T08:07:33;17.10;91.30
26186;DHT22;20067;48.764;9.176;2023-08-30T08:09:59;17.20;91.30
26186;DHT22;20067;48.764;9.176;2023-08-30T08:12:26;17.40;91.30
26186;DHT22;20067;48.764;9.176;2023-08-30T08:14:51;17.50;91.30
26186;DHT22;20067;48.764;9.176;2023-08-30T08:17:17;17.10;91.30
26186;DHT22;20067;48.764;9.176;2023-08-30T08:19:43;16.90;91.30
26186;DHT22;20067;48.764;9.176;2023-08-30T08:22:09;17.10;91.30
26186;DHT22;20067;48.764;9.176;2023-08-30T08:24:35;17.10;91.30
26186;DHT22;20067;48.764;9.176;2023-08-30T08:27:00;17.20;91.30
26186;DHT22;20067;48.764;9.176;2023-08-30T08:29:27;17.00;91.30
26186;DHT22;20067;48.764;9.176;2023-08-30T08:31:55;17.00;91.30
26186;DHT22;20067;48.764;9.176;2023-08-30T08:34:21;16.80;91.30
26186;DHT22;20067;48.764;9.176;2023-08-30T08:36:47;16.60;91.30
26186;DHT22;20067;48.764;9.176;2023-08-30T08:39:13;16.70;91.30
26186;DHT22;20067;48.764;9.176;2023-08-30T08:41:40;16.70;91.30
26186;DHT22;20067;48.764;9.176;2023-08-30T08:44:10;16.60;91.30
26186;DHT22;20067;48.764;9.176;2023-08-30T08:46:38;16.70;91.30
26186;DHT22;20067;48.764;9.176;2023-08-30T08:49:14;16.90;91.30
26186;DHT22;20067;48.764;9.176;2023-08-30T08:51:40;17.30;91.30
26186;DHT22;20067;48.764;9.176;2023-08-30T08:54:10;17.30;91.30
26186;DHT22;20067;48.764;9.176;2023-08-30T08:56:37;17.70;91.30
26186;DHT22;20067;48.764;9.176;2023-08-30T08:59:03;17.80;91.30
26186;DHT22;20067;48.764;9.176;2023-08-30T09:01:30;17.60;91.30
26186;DHT22;20067;48.764;9.176;2023-08-30T09:03:59;17.50;91.30
26186;DHT22;20067;48.764;9.176;2023-08-30T09:06:25;18.00;91.30
26186;DHT22;20067;48.764;9.176;2023-08-30T09:08:51;18.00;91.30
26186;DHT22;20067;48.764;9.176;2023-08-30T09:11:17;18.20;91.30
26186;DHT22;20067;48.764;9.176;2023-08-30T09:13:43;17.90;91.30
26186;DHT22;20067;48.764;9.176;2023-08-30T09:16:15;17.90;91.30
26186;DHT22;20067;48.764;9.176;2023-08-30T09:18:42;17.80;91.30
26186;DHT22;20067;48.764;9.176;2023-08-30T09:21:11;17.80;91.30
26186;DHT22;20067;48.764;9.176;2023-08-30T09:23:37;18.20;91.30
26186;DHT22;20067;48.764;9.176;2023-08-30T09:26:04;18.60;91.30
26186;DHT22;20067;48.764;9.176;2023-08-30T09:28:30;18.60;91.30
26186;DHT22;20067;48.764;9.176;2023-08-30T09:30:58;19.00;91.30
26186;DHT22;20067;48.764;9.176;2023-08-30T09:33:33;19.40;91.30
26186;DHT22;20067;48.764;9.176;2023-08-30T09:35:59;19.70;90.50
26186;DHT22;20067;48.764;9.176;2023-08-30T09:38:26;20.10;91.20
26186;DHT22;20067;48.764;9.176;2023-08-30T09:40:52;20.40;88.30
26186;DHT22;20067;48.764;9.176;2023-08-30T09:43:27;20.40;89.00
26186;DHT22;20067;48.764;9.176;2023-08-30T09:45:53;20.30;87.00
26186;DHT22;20067;48.764;9.176;2023-08-30T09:48:22;20.00;89.50
26186;DHT22;20067;48.764;9.176;2023-08-30T09:50:53;20.10;89.20
26186;DHT22;20067;48.764;9.176;2023-08-30T09:53:22;20.20;89.70
26186;DHT22;20067;48.764;9.176;2023-08-30T09:55:52;20.50;89.60
26186;DHT22;20067;48.764;9.176;2023-08-30T09:58:20;20.60;87.90
26186;DHT22;20067;48.764;9.176;2023-08-30T10:00:47;20.40;88.40
26186;DHT22;20067;48.764;9.176;2023-08-30T10:03:14;20.40;89.00
26186;DHT22;20067;48.764;9.176;2023-08-30T10:05:41;20.70;87.90
26186;DHT22;20067;48.764;9.176;2023-08-30T10:08:07;20.90;86.80
26186;DHT22;20067;48.764;9.176;2023-08-30T10:10:34;21.00;86.60
26186;DHT22;20067;48.764;9.176;2023-08-30T10:13:01;21.10;85.70
26186;DHT22;20067;48.764;9.176;2023-08-30T10:15:29;21.30;84.10
26186;DHT22;20067;48.764;9.176;2023-08-30T10:17:58;21.80;82.00
26186;DHT22;20067;48.764;9.176;2023-08-30T10:20:27;21.80;81.80
26186;DHT22;20067;48.764;9.176;2023-08-30T10:22:54;22.00;80.90
26186;DHT22;20067;48.764;9.176;2023-08-30T10:25:24;21.70;81.30
26186;DHT22;20067;48.764;9.176;2023-08-30T10:27:52;21.00;82.50
26186;DHT22;20067;48.764;9.176;2023-08-30T10:30:20;21.50;83.00
26186;DHT22;20067;48.764;9.176;2023-08-30T10:32:47;21.80;80.50
26186;DHT22;20067;48.764;9.176;2023-08-30T10:35:13;21.80;80.80
26186;DHT22;20067;48.764;9.176;2023-08-30T10:37:40;22.30;80.30
26186;DHT22;20067;48.764;9.176;2023-08-30T10:40:06;22.70;78.90
26186;DHT22;20067;48.764;9.176;2023-08-30T10:42:33;23.50;78.20
26186;DHT22;20067;48.764;9.176;2023-08-30T10:45:06;23.00;75.60
26186;DHT22;20067;48.764;9.176;2023-08-30T10:47:34;22.60;76.90
26186;DHT22;20067;48.764;9.176;2023-08-30T10:50:08;22.90;76.70
26186;DHT22;20067;48.764;9.176;2023-08-30T10:52:34;23.60;75.20
26186;DHT22;20067;48.764;9.176;2023-08-30T10:55:14;23.90;72.80
26186;DHT22;20067;48.764;9.176;2023-08-30T10:57:44;22.90;75.60
26186;DHT22;20067;48.764;9.176;2023-08-30T11:00:22;23.30;75.60
26186;DHT22;20067;48.764;9.176;2023-08-30T11:02:49;23.60;73.10
26186;DHT22;20067;48.764;9.176;2023-08-30T11:05:16;24.20;72.90
26186;DHT22;20067;48.764;9.176;2023-08-30T11:07:45;24.00;72.50
26186;DHT22;20067;48.764;9.176;2023-08-30T11:10:12;22.70;74.60
26186;DHT22;20067;48.764;9.176;2023-08-30T11:12:40;22.60;76.10
26186;DHT22;20067;48.764;9.176;2023-08-30T11:15:07;23.80;74.70
26186;DHT22;20067;48.764;9.176;2023-08-30T11:17:34;24.50;71.60
26186;DHT22;20067;48.764;9.176;2023-08-30T11:20:16;25.80;69.70
26186;DHT22;20067;48.764;9.176;2023-08-30T11:22:47;26.10;67.80
26186;DHT22;20067;48.764;9.176;2023-08-30T11:25:15;25.70;68.20
26186;DHT22;20067;48.764;9.176;2023-08-30T11:27:42;25.90;67.30
26186;DHT22;20067;48.764;9.176;2023-08-30T11:30:09;24.70;69.70
26186;DHT22;20067;48.764;9.176;2023-08-30T11:32:36;23.00;73.60
26186;DHT22;20067;48.764;9.176;2023-08-30T11:35:03;23.00;74.00
26186;DHT22;20067;48.764;9.176;2023-08-30T11:37:31;23.40;71.90
26186;DHT22;20067;48.764;9.176;2023-08-30T11:39:58;23.30;72.30
26186;DHT22;20067;48.764;9.176;2023-08-30T11:42:24;22.70;73.60
26186;DHT22;20067;48.764;9.176;2023-08-30T11:44:51;22.30;76.60
26186;DHT22;20067;48.764;9.176;2023-08-30T11:47:35;21.90;78.10
26186;DHT22;20067;48.764;9.176;2023-08-30T11:50:01;21.40;79.60
26186;DHT22;20067;48.764;9.176;2023-08-30T11:52:27;20.80;81.20
26186;DHT22;20067;48.764;9.176;2023-08-30T11:54:54;20.40;81.40
26186;DHT22;20067;48.764;9.176;2023-08-30T11:57:20;19.90;83.50
26186;DHT22;20067;48.764;9.176;2023-08-30T11:59:46;19.40;84.10
26186;DHT22;20067;48.764;9.176;2023-08-30T12:02:13;19.30;85.30
26186;DHT22;20067;48.764;9.176;2023-08-30T12:04:41;19.40;85.60
26186;DHT22;20067;48.764;9.176;2023-08-30T12:07:08;19.20;87.00
26186;DHT22;20067;48.764;9.176;2023-08-30T12:09:34;18.70;88.90
26186;DHT22;20067;48.764;9.176;2023-08-30T12:12:10;18.70;89.10
26186;DHT22;20067;48.764;9.176;2023-08-30T12:14:39;19.00;91.30
26186;DHT22;20067;48.764;9.176;2023-08-30T12:17:05;18.90;91.30
26186;DHT22;20067;48.764;9.176;2023-08-30T12:19:33;18.70;91.30
26186;DHT22;20067;48.764;9.176;2023-08-30T12:22:06;18.50;91.30
26186;DHT22;20067;48.764;9.176;2023-08-30T12:24:45;18.30;91.30
26186;DHT22;20067;48.764;9.176;2023-08-30T12:27:11;18.00;91.30
26186;DHT22;20067;48.764;9.176;2023-08-30T12:29:37;17.80;91.30
26186;DHT22;20067;48.764;9.176;2023-08-30T12:32:03;17.90;91.30
26186;DHT22;20067;48.764;9.176;2023-08-30T12:34:29;18.10;91.30
26186;DHT22;20067;48.764;9.176;2023-08-30T12:36:55;18.20;91.30
26186;DHT22;20067;48.764;9.176;2023-08-30T12:39:21;18.00;91.30
26186;DHT22;20067;48.764;9.176;2023-08-30T12:41:47;18.00;91.30
26186;DHT22;20067;48.764;9.176;2023-08-30T12:44:12;17.90;91.30
26186;DHT22;20067;48.764;9.176;2023-08-30T12:46:38;17.90;91.30
26186;DHT22;20067;48.764;9.176;2023-08-30T12:49:04;17.90;91.30
26186;DHT22;20067;48.764;9.176;2023-08-30T12:51:30;18.00;91.30
26186;DHT22;20067;48.764;9.176;2023-08-30T12:53:56;18.10;91.30
26186;DHT22;20067;48.764;9.176;2023-08-30T12:56:22;18.10;91.30
26186;DHT22;20067;48.764;9.176;2023-08-30T12:58:48;18.20;91.30
26186;DHT22;20067;48.764;9.176;2023-08-30T13:01:13;18.50;91.30
26186;DHT22;20067;48.764;9.176;2023-08-30T13:03:39;18.80;91.30
26186;DHT22;20067;48.764;9.176;2023-08-30T13:06:05;19.00;91.30
26186;DHT22;20067;48.764;9.176;2023-08-30T13:08:30;19.40;91.30
26186;DHT22;20067;48.764;9.176;2023-08-30T13:10:59;19.50;91.30
26186;DHT22;20067;48.764;9.176;2023-08-30T13:13:25;19.90;91.30
26186;DHT22;20067;48.764;9.176;2023-08-30T13:15:51;20.70;91.30
26186;DHT22;20067;48.764;9.176;2023-08-30T13:18:17;20.90;90.20
26186;DHT22;20067;48.764;9.176;2023-08-30T13:20:43;21.30;89.40
26186;DHT22;20067;48.764;9.176;2023-08-30T13:23:09;21.50;90.70
26186;DHT22;20067;48.764;9.176;2023-08-30T13:25:39;21.70;88.80
26186;DHT22;20067;48.764;9.176;2023-08-30T13:28:05;21.90;87.80
26186;DHT22;20067;48.764;9.176;2023-08-30T13:30:31;22.30;87.20
26186;DHT22;20067;48.764;9.176;2023-08-30T13:32:57;22.00;85.10
26186;DHT22;20067;48.764;9.176;2023-08-30T13:35:22;21.60;89.40
26186;DHT22;20067;48.764;9.176;2023-08-30T13:37:48;22.00;88.40
26186;DHT22;20067;48.764;9.176;2023-08-30T13:40:15;23.00;84.80
26186;DHT22;20067;48.764;9.176;2023-08-30T13:42:41;24.30;81.80
26186;DHT22;20067;48.764;9.176;2023-08-30T13:45:07;25.30;76.70
26186;DHT22;20067;48.764;9.176;2023-08-30T13:47:35;27.50;73.00
26186;DHT22;20067;48.764;9.176;2023-08-30T13:50:00;28.40;70.20
26186;DHT22;20067;48.764;9.176;2023-08-30T13:52:26;28.80;65.70
26186;DHT22;20067;48.764;9.176;2023-08-30T13:54:53;30.30;63.70
26186;DHT22;20067;48.764;9.176;2023-08-30T13:57:18;30.10;60.80
26186;DHT22;20067;48.764;9.176;2023-08-30T13:59:44;30.00;61.90
26186;DHT22;20067;48.764;9.176;2023-08-30T14:02:10;29.40;61.70
26186;DHT22;20067;48.764;9.176;2023-08-30T14:04:36;28.50;64.30
26186;DHT22;20067;48.764;9.176;2023-08-30T14:07:02;27.40;65.60
26186;DHT22;20067;48.764;9.176;2023-08-30T14:09:29;25.60;71.40
26186;DHT22;20067;48.764;9.176;2023-08-30T14:11:54;24.70;72.60
26186;DHT22;20067;48.764;9.176;2023-08-30T14:14:21;23.90;72.40
26186;DHT22;20067;48.764;9.176;2023-08-30T14:16:46;23.50;75.40
26186;DHT22;20067;48.764;9.176;2023-08-30T14:19:14;23.20;74.10
26186;DHT22;20067;48.764;9.176;2023-08-30T14:21:41;22.80;76.10
26186;DHT22;20067;48.764;9.176;2023-08-30T14:24:07;22.90;77.20
26186;DHT22;20067;48.764;9.176;2023-08-30T14:26:33;22.80;76.60
26186;DHT22;20067;48.764;9.176;2023-08-30T14:28:58;22.30;79.20
26186;DHT22;20067;48.764;9.176;2023-08-30T14:31:24;22.10;80.00
26186;DHT22;20067;48.764;9.176;2023-08-30T14:33:54;22.40;79.40
26186;DHT22;20067;48.764;9.176;2023-08-30T14:36:20;22.50;78.20
26186;DHT22;20067;48.764;9.176;2023-08-30T14:38:45;22.10;79.90
26186;DHT22;20067;48.764;9.176;2023-08-30T14:41:11;22.00;79.20
26186;DHT22;20067;48.764;9.176;2023-08-30T14:43:38;21.90;80.40
26186;DHT22;20067;48.764;9.176;2023-08-30T14:46:05;21.80;81.50
26186;DHT22;20067;48.764;9.176;2023-08-30T14:48:34;21.50;81.70
26186;DHT22;20067;48.764;9.176;2023-08-30T14:51:01;21.00;82.20
26186;DHT22;20067;48.764;9.176;2023-08-30T14:53:28;21.10;84.50
26186;DHT22;20067;48.764;9.176;2023-08-30T14:55:54;21.10;85.50
26186;DHT22;20067;48.764;9.176;2023-08-30T14:58:22;20.90;84.60
26186;DHT22;20067;48.764;9.176;2023-08-30T15:00:48;20.60;85.70
26186;DHT22;20067;48.764;9.176;2023-08-30T15:03:14;20.40;89.70
26186;DHT22;20067;48.764;9.176;2023-08-30T15:05:40;20.30;91.10
26186;DHT22;20067;48.764;9.176;2023-08-30T15:08:06;20.20;91.30
26186;DHT22;20067;48.764;9.176;2023-08-30T15:10:32;20.10;91.30
26186;DHT22;20067;48.764;9.176;2023-08-30T15:12:58;20.10;91.30
26186;DHT22;20067;48.764;9.176;2023-08-30T15:15:23;20.20;91.30
26186;DHT22;20067;48.764;9.176;2023-08-30T15:17:49;20.30;91.30
26186;DHT22;20067;48.764;9.176;2023-08-30T15:20:15;20.50;91.30
26186;DHT22;20067;48.764;9.176;2023-08-30T15:22:41;20.70;91.30
26186;DHT22;20067;48.764;9.176;2023-08-30T15:25:07;20.80;91.30
26186;DHT22;20067;48.764;9.176;2023-08-30T15:27:35;20.90;91.10
26186;DHT22;20067;48.764;9.176;2023-08-30T15:30:02;20.70;88.20
26186;DHT22;20067;48.764;9.176;2023-08-30T15:32:28;20.60;88.50